Orchards, Washington
Current Conditions -  °F | °C
As of 11:25 AM on Monday 22 Dec 2014 (Local Time) from KVUO Reporting Station
Broken Clouds Broken Clouds  
Wind Chill: 51°   Ceiling: 12000
Heat Index: 51°   Visibility: 7mi
Dew Point: 47°   Wind: 3mph
Humidity: 86%   Direction: NA
Pressure: 30.37"   Gusts: NA
Location:  45.6907°N, 122.574°W
Report Text: KVUO 221925Z AUTO VRB03KT 7SM FEW008 SCT013 BKN120 11/08 A3037 RMK AO2 T01060083
Loading
Personal Weather Stations






























Interactive Weather Map New forecast layout! Learn more

10-Day Weather Forecast

Advertisements
Track Severe Weather on mobile